Terminal Aerodrome Forecast
Issued by NWS Greer, SC

Home | Current Version | Previous Version | Text Only | Print | Product List | Glossary On
Versions: 1 2 3 4 5 6 7 8 9 10 11 12 13 14 15 16 17
000
FTUS42 KGSP 252337
TAFAVL
TAF
KAVL 252337Z 2600/2624 19004KT P6SM SCT070
     FM260200 00000KT P6SM BKN080
     FM261400 23004KT P6SM SCT040 BKN090
     FM261700 21004KT P6SM BKN045 PROB30 2618/2624 4SM TSRA
      BKN035CB=

USA.gov is the U.S. government's official web portal to all federal, state and local government web resources and services.